Map

Track Data

SID SEASON NUMBER BASIN SUBBASIN NAME ISO_TIME NATURE LAT LON WMO_WIND WMO_PRES WMO_AGENCY TRACK_TYPE DIST2LAND LANDFALL IFLAG USA_AGENCY USA_ATCF_ID USA_LAT USA_LON USA_RECORD USA_STATUS USA_WIND USA_PRES USA_SSHS USA_R34_NE USA_R34_SE USA_R34_SW USA_R34_NW USA_R50_NE USA_R50_SE USA_R50_SW USA_R50_NW USA_R64_NE USA_R64_SE USA_R64_SW USA_R64_NW USA_POCI USA_ROCI USA_RMW USA_EYE TOKYO_LAT TOKYO_LON TOKYO_GRADE TOKYO_WIND TOKYO_PRES TOKYO_R50_DIR TOKYO_R50_LONG TOKYO_R50_SHORT TOKYO_R30_DIR TOKYO_R30_LONG TOKYO_R30_SHORT TOKYO_LAND CMA_LAT CMA_LON CMA_CAT CMA_WIND CMA_PRES HKO_LAT HKO_LON HKO_CAT HKO_WIND HKO_PRES NEWDELHI_LAT NEWDELHI_LON NEWDELHI_GRADE NEWDELHI_WIND NEWDELHI_PRES NEWDELHI_CI NEWDELHI_DP NEWDELHI_POCI REUNION_LAT REUNION_LON REUNION_TYPE REUNION_WIND REUNION_PRES REUNION_TNUM REUNION_CI REUNION_RMW REUNION_R34_NE REUNION_R34_SE REUNION_R34_SW REUNION_R34_NW REUNION_R50_NE REUNION_R50_SE REUNION_R50_SW REUNION_R50_NW REUNION_R64_NE REUNION_R64_SE REUNION_R64_SW REUNION_R64_NW BOM_LAT BOM_LON BOM_TYPE BOM_WIND BOM_PRES BOM_TNUM BOM_CI BOM_RMW BOM_R34_NE BOM_R34_SE BOM_R34_SW BOM_R34_NW BOM_R50_NE BOM_R50_SE BOM_R50_SW BOM_R50_NW BOM_R64_NE BOM_R64_SE BOM_R64_SW BOM_R64_NW BOM_ROCI BOM_POCI BOM_EYE BOM_POS_METHOD BOM_PRES_METHOD NADI_LAT NADI_LON NADI_CAT NADI_WIND NADI_PRES WELLINGTON_LAT WELLINGTON_LON WELLINGTON_WIND WELLINGTON_PRES DS824_LAT DS824_LON DS824_STAGE DS824_WIND DS824_PRES TD9636_LAT TD9636_LON TD9636_STAGE TD9636_WIND TD9636_PRES TD9635_LAT TD9635_LON TD9635_WIND TD9635_PRES TD9635_ROCI NEUMANN_LAT NEUMANN_LON NEUMANN_CLASS NEUMANN_WIND NEUMANN_PRES MLC_LAT MLC_LON MLC_CLASS MLC_WIND MLC_PRES USA_GUST BOM_GUST BOM_GUST_PER REUNION_GUST REUNION_GUST_PER USA_SEAHGT USA_SEARAD_NE USA_SEARAD_SE USA_SEARAD_SW USA_SEARAD_NW STORM_SPEED STORM_DIR
1997302S08199 1998 104 SP MM MARTIN 1997-10-28 18:00:00 TS -7.50000 -161.100 main 1398 1373 O___________O_ jtwc_sh SH041998 -7.50000 -161.100 25 -1 -7.50000 -161.100 TC 25 5 247
1997302S08199 1998 104 SP MM MARTIN 1997-10-28 21:00:00 TS -7.60253 -161.345 main 1373 1339 P___________P_ SH041998 -7.60253 -161.345 25 -1 -7.60253 -161.345 TC 25 5 248
1997302S08199 1998 104 SP MM MARTIN 1997-10-29 00:00:00 TS -7.70000 -161.600 main 1339 1305 O___________O_ jtwc_sh SH041998 -7.70000 -161.600 25 -1 -7.70000 -161.600 TC 25 6 250
1997302S08199 1998 104 SP MM MARTIN 1997-10-29 03:00:00 TS -7.79246 -161.878 main 1305 1271 P___________P_ SH041998 -7.79246 -161.878 25 -1 -7.79246 -161.878 TC 25 6 251
1997302S08199 1998 104 SP MM MARTIN 1997-10-29 06:00:00 TS -7.90000 -162.200 main 1271 1227 O___________O_ jtwc_sh SH041998 -7.90000 -162.200 25 -1 -7.90000 -162.200 TC 25 7 250
1997302S08199 1998 104 SP MM MARTIN 1997-10-29 09:00:00 TS -8.04998 -162.577 main 1227 1178 P___________P_ SH041998 -8.04998 -162.577 27 -1 -8.04998 -162.577 TC 27 8 249
1997302S08199 1998 104 SP MM MARTIN 1997-10-29 12:00:00 TS -8.20000 -163.000 main 1178 1135 O___________O_ jtwc_sh SH041998 -8.20000 -163.000 30 -1 -8.20000 -163.000 TC 30 9 254
1997302S08199 1998 104 SP MM MARTIN 1997-10-29 15:00:00 TS -8.30004 -163.465 main 1126 1083 P___________P_ SH041998 -8.30004 -163.465 30 -1 -8.30004 -163.465 TC 30 9 257
1997302S08199 1998 104 SP MM MARTIN 1997-10-29 18:00:00 TS -8.40000 -163.900 main 1083 1049 O___________O_ jtwc_sh SH041998 -8.40000 -163.900 30 -1 -8.40000 -163.900 TC 30 8 252
1997302S08199 1998 104 SP MM MARTIN 1997-10-29 21:00:00 TS -8.54993 -164.230 main 1049 1009 P___________P_ SH041998 -8.54993 -164.230 30 -1 -8.54993 -164.230 TC 30 7 243
1997302S08199 1998 104 SP MM MARTIN 1997-10-30 00:00:00 TS -8.70000 -164.500 main 1009 976 O___________O_ jtwc_sh SH041998 -8.70000 -164.500 30 -1 -8.70000 -164.500 TC 30 6 244
1997302S08199 1998 104 SP MM MARTIN 1997-10-30 03:00:00 TS -8.81499 -164.773 main 976 951 P___________P_ SH041998 -8.81499 -164.773 30 -1 -8.81499 -164.773 TC 30 5 248
1997302S08199 1998 104 SP MM MARTIN 1997-10-30 06:00:00 TS -8.90000 -165.000 main 951 927 O___________O_ jtwc_sh SH041998 -8.90000 -165.000 30 -1 -8.90000 -165.000 TC 30 4 251
1997302S08199 1998 104 SP MM MARTIN 1997-10-30 09:00:00 TS -8.95749 -165.188 main 927 918 P___________P_ SH041998 -8.95749 -165.188 30 -1 -8.95749 -165.188 TC 30 3 251
1997302S08199 1998 104 SP MM MARTIN 1997-10-30 12:00:00 TS -9.00000 -165.300 main 918 918 O___________O_ jtwc_sh SH041998 -9.00000 -165.300 30 -1 -9.00000 -165.300 TC 30 2 236
1997302S08199 1998 104 SP MM MARTIN 1997-10-30 15:00:00 TS -9.04249 -165.315 main 918 911 P___________P_ SH041998 -9.04249 -165.315 32 -1 -9.04249 -165.315 TC 32 1 0
1997302S08199 1998 104 SP MM MARTIN 1997-10-30 18:00:00 TS -9.10000 -165.300 main 911 905 O___________O_ jtwc_sh SH041998 -9.10000 -165.300 35 0 -9.10000 -165.300 TC 35 1 190
1997302S08199 1998 104 SP MM MARTIN 1997-10-30 21:00:00 TS -9.17750 -165.342 main 905 874 P___________P_ SH041998 -9.17750 -165.342 37 0 -9.17750 -165.342 TC 37 4 218
1997302S08199 1998 104 SP MM MARTIN 1997-10-31 00:00:00 TS -9.37778 -165.522 main 874 853 O_______O___O_ jtwc_sh SH041998 -9.30000 -165.400 40 0 -10.0000 -166.500 30 997 -9.30000 -165.400 TC 40 5 216
1997302S08199 1998 104 SP MM MARTIN 1997-10-31 03:00:00 TS -9.58996 -165.647 main 853 831 P_______P___P_ SH041998 -9.47750 -165.457 42 0 -10.0398 -166.407 30 997 -9.47750 -165.457 TC 42 5 204
1997302S08199 1998 104 SP MM MARTIN 1997-10-31 06:00:00 TS -9.80909 -165.718 main 831 820 O_______O___O_ jtwc_sh SH041998 -9.70000 -165.500 45 0 -10.1000 -166.300 30 997 -9.70000 -165.500 TC 45 4 191
1997302S08199 1998 104 SP MM MARTIN 1997-10-31 09:00:00 TS -10.0269 -165.737 main 820 808 P_______P___P_ SH041998 -9.94999 -165.522 47 0 -10.1807 -166.167 30 997 -9.94999 -165.522 TC 47 4 171
1997302S08199 1998 104 SP MM MARTIN 1997-10-31 12:00:00 TS -10.2000 -165.667 main 808 808 O_______O___O_ jtwc_sh SH041998 -10.2000 -165.500 50 0 -10.2000 -166.000 30 997 -10.2000 -165.500 TC 50 3 148
1997302S08199 1998 104 SP MM MARTIN 1997-10-31 15:00:00 TS -10.2938 -165.572 35 992 nadi main 812 812 P_______O___P_ SH041998 -10.4150 -165.430 52 0 -10.1000 -165.800 35 992 -10.1000 -165.800 35 992 -10.4150 -165.430 TC 52 4 139
1997302S08199 1998 104 SP MM MARTIN 1997-10-31 18:00:00 TS -10.4714 -165.429 45 987 nadi main 821 821 O_______O___O_ jtwc_sh SH041998 -10.6000 -165.300 55 0 -10.3000 -165.600 45 987 -10.3000 -165.600 45 987 -10.6000 -165.300 TC 55 4 135
1997302S08199 1998 104 SP MM MARTIN 1997-10-31 21:00:00 TS -10.5824 -165.281 main 826 826 P______IP___P_ SH041998 -10.7650 -165.130 57 0 -10.3738 -165.453 47 986 -10.3738 -165.453 47 986 -10.7650 -165.130 TC 57 4 119
1997302S08199 1998 104 SP MM MARTIN 1997-11-01 00:00:00 TS -10.6500 -165.100 50 985 nadi main 846 841 O_______O___O_ jtwc_sh SH041998 -10.9000 -164.900 60 0 -10.4000 -165.300 50 985 -10.4000 -165.300 50 985 -10.9000 -164.900 TC 60 5 114
1997302S08199 1998 104 SP MM MARTIN 1997-11-01 03:00:00 TS -10.7649 -164.863 main 857 857 P______IP___P_ SH041998 -11.0225 -164.623 62 0 -10.5074 -165.103 52 982 -10.5074 -165.103 52 982 -11.0225 -164.623 TC 62 6 110
1997302S08199 1998 104 SP MM MARTIN 1997-11-01 06:00:00 TS -10.8500 -164.550 55 980 nadi main 887 883 O_______O___O_ jtwc_sh SH041998 -11.1000 -164.300 65 1 -10.6000 -164.800 55 980 -10.6000 -164.800 55 980 -11.1000 -164.300 TC 65 7 98
1997302S08199 1998 104 SP MM MARTIN 1997-11-01 09:00:00 TS -10.8651 -164.132 main 934 934 P______IP___P_ SH041998 -11.1225 -163.957 67 1 -10.6077 -164.307 57 977 -10.6077 -164.307 57 977 -11.1225 -163.957 TC 67 8 90
1997302S08199 1998 104 SP MM MARTIN 1997-11-01 12:00:00 TS -10.8500 -163.700 60 975 nadi main 979 975 O_______O___O_ jtwc_sh SH041998 -11.1000 -163.600 70 1 -10.6000 -163.800 60 975 -10.6000 -163.800 60 975 -11.1000 -163.600 TC 70 7 87
1997302S08199 1998 104 SP MM MARTIN 1997-11-01 15:00:00 TS -10.8236 -163.379 main 1010 1010 P______IP___P_ SH041998 -11.0424 -163.257 72 1 -10.6048 -163.500 62 972 -10.6048 -163.500 62 972 -11.0424 -163.257 TC 72 6 90
1997302S08199 1998 104 SP MM MARTIN 1997-11-01 18:00:00 TS -10.8500 -163.050 65 970 nadi main 1051 1048 O_______O___O_ jtwc_sh SH041998 -11.0000 -162.900 75 1 -10.7000 -163.200 65 970 -10.7000 -163.200 65 970 -11.0000 -162.900 TC 75 8 104
1997302S08199 1998 104 SP MM MARTIN 1997-11-01 21:00:00 TS -11.0100 -162.626 main 1086 1086 P______IP___P_ SH041998 -11.0274 -162.515 75 1 -10.9925 -162.738 67 967 -10.9925 -162.738 67 967 -11.0274 -162.515 TC 75 10 112
1997302S08199 1998 104 SP MM MARTIN 1997-11-02 00:00:00 TS -11.2000 -162.150 70 965 nadi main 1132 1132 O_______O___O_ jtwc_sh SH041998 -11.1000 -162.100 75 1 -11.3000 -162.200 70 965 -11.3000 -162.200 70 965 -11.1000 -162.100 TC 75 10 107
1997302S08199 1998 104 SP MM MARTIN 1997-11-02 03:00:00 TS -11.2924 -161.669 main 1171 1171 P______IP___P_ SH041998 -11.1624 -161.680 77 1 -11.4224 -161.657 70 965 -11.4224 -161.657 70 965 -11.1624 -161.680 TC 77 10 102
1997302S08199 1998 104 SP MM MARTIN 1997-11-02 06:00:00 TS -11.4000 -161.150 70 965 nadi main 1232 1232 O_______O___O_ jtwc_sh SH041998 -11.3000 -161.200 80 1 -11.5000 -161.100 70 965 -11.5000 -161.100 70 965 -11.3000 -161.200 TC 80 11 105
1997302S08199 1998 104 SP MM MARTIN 1997-11-02 09:00:00 TS -11.5800 -160.582 main 1280 1280 P______IP___P_ SH041998 -11.5475 -160.630 82 1 -11.6125 -160.535 72 962 -11.6125 -160.535 72 962 -11.5475 -160.630 TC 82 12 112
1997302S08199 1998 104 SP MM MARTIN 1997-11-02 12:00:00 TS -11.8500 -160.000 75 960 nadi main 1340 1338 O_______O___O_ jtwc_sh SH041998 -11.9000 -160.000 85 2 -11.8000 -160.000 75 960 -11.8000 -160.000 75 960 -11.9000 -160.000 TC 85 12 120
1997302S08199 1998 104 SP MM MARTIN 1997-11-02 15:00:00 TS -12.2084 -159.483 main 1387 1387 P______IP___P_ SH041998 -12.3124 -159.365 87 2 -12.1044 -159.602 77 957 -12.1044 -159.602 77 957 -12.3124 -159.365 TC 87 13 127
1997302S08199 1998 104 SP MM MARTIN 1997-11-02 18:00:00 TS -12.6500 -158.900 80 955 nadi main 1446 1444 O_______O___O_ jtwc_sh SH041998 -12.8000 -158.700 90 2 -12.5000 -159.100 80 955 -12.5000 -159.100 80 955 -12.8000 -158.700 TC 90 16 124
1997302S08199 1998 104 SP MM MARTIN 1997-11-02 21:00:00 TS -13.1088 -158.137 main 1527 1527 P______IP___P_ SH041998 -13.3273 -158.015 92 2 -12.8904 -158.260 80 952 -12.8904 -158.260 80 952 -13.3273 -158.015 TC 92 19 123
1997302S08199 1998 104 SP MM MARTIN 1997-11-03 00:00:00 TS -13.6500 -157.300 80 950 nadi main 1610 1609 O_______O___O_ jtwc_sh SH041998 -13.9000 -157.300 95 2 -13.4000 -157.300 80 950 -13.4000 -157.300 80 950 -13.9000 -157.300 TC 95 20 126
1997302S08199 1998 104 SP MM MARTIN 1997-11-03 03:00:00 TS -14.2911 -156.485 main 1695 1695 P______IP___P_ SH041998 -14.4773 -156.564 95 2 -14.1050 -156.405 82 947 -14.1050 -156.405 82 947 -14.4773 -156.564 TC 95 21 131
1997302S08199 1998 104 SP MM MARTIN 1997-11-03 06:00:00 TS -15.0000 -155.700 85 945 nadi main 1782 1782 O_______O___O_ jtwc_sh SH041998 -15.1000 -155.800 95 2 -14.9000 -155.600 85 945 -14.9000 -155.600 85 945 -15.1000 -155.800 TC 95 20 135
1997302S08199 1998 104 SP MM MARTIN 1997-11-03 09:00:00 TS -15.7169 -155.010 main 1862 1862 P______IP___P_ SH041998 -15.7772 -155.014 97 3 -15.6566 -155.006 85 945 -15.6566 -155.006 85 945 -15.7772 -155.014 TC 97 20 137
1997302S08199 1998 104 SP MM MARTIN 1997-11-03 12:00:00 TS -16.4500 -154.300 85 945 nadi main 1943 1944 O_______O___O_ jtwc_sh SH041998 -16.5000 -154.200 100 3 -16.4000 -154.400 85 945 -16.4000 -154.400 85 945 -16.5000 -154.200 TC 100 21 134
1997302S08199 1998 104 SP MM MARTIN 1997-11-03 15:00:00 TS -17.1600 -153.443 main 2049 2049 P______IP___P_ SH041998 -17.2347 -153.357 100 3 -17.0853 -153.530 82 947 -17.0853 -153.530 82 950 -17.2347 -153.357 TC 100 22 131
1997302S08199 1998 104 SP MM MARTIN 1997-11-03 18:00:00 TS -17.9000 -152.550 80 950 nadi main 2145 2145 O_______O___O_ jtwc_sh SH041998 -18.0000 -152.500 100 3 -17.8000 -152.600 80 950 -17.8000 -152.600 80 955 -18.0000 -152.500 TC 100 22 134
1997302S08199 1998 104 SP MM MARTIN 1997-11-03 21:00:00 TS -18.6977 -151.753 main 2244 2244 P______IP___P_ SH041998 -18.7922 -151.642 95 2 -18.6032 -151.865 80 952 -18.6032 -151.865 75 960 -18.7922 -151.642 TC 95 23 137
1997302S08199 1998 104 SP MM MARTIN 1997-11-04 00:00:00 TS -19.5500 -150.900 80 955 nadi main 2355 2357 O_______O___O_ jtwc_sh SH041998 -19.6000 -150.800 90 2 -19.5000 -151.000 80 955 -19.5000 -151.000 70 965 -19.6000 -150.800 TC 90 26 134
1997302S08199 1998 104 SP MM MARTIN 1997-11-04 03:00:00 TS -20.4848 -149.812 main 2492 2492 P______IP___P_ SH041998 -20.3920 -149.991 82 1 -20.5776 -149.632 77 957 -20.5776 -149.632 65 970 -20.3920 -149.991 TC 82 27 132
1997302S08199 1998 104 SP MM MARTIN 1997-11-04 06:00:00 TS -21.3500 -148.750 75 960 nadi main 2625 2615 O_______O___O_ jtwc_sh SH041998 -21.2000 -149.200 75 1 -21.5000 -148.300 75 960 -21.5000 -148.300 60 975 -21.2000 -149.200 TC 75 23 131
1997302S08199 1998 104 SP MM MARTIN 1997-11-04 09:00:00 TS -21.9860 -147.985 main 2715 2715 P______IP___P_ SH041998 -22.0344 -148.414 62 0 -21.9382 -147.519 70 965 -21.9372 -147.594 55 980 -22.0344 -148.414 TC 62 18 130
1997302S08199 1998 104 SP MM MARTIN 1997-11-04 12:00:00 TS -22.5000 -147.257 65 970 nadi main 2800 2800 O_______O___O_ jtwc_sh SH041998 -22.9000 -147.600 50 0 -22.2000 -147.000 65 970 -22.2000 -147.000 50 985 -22.9000 -147.600 TC 50 18 124
1997302S08199 1998 104 SP MM MARTIN 1997-11-04 15:00:00 TS -22.9806 -146.405 main 2904 2904 P______IP___P_ SH041998 -23.7937 -146.723 40 0 -22.5767 -146.514 60 975 -22.5714 -145.978 47 986 -23.7937 -146.723 TC 40 18 118
1997302S08199 1998 104 SP MM MARTIN 1997-11-04 18:00:00 TS -23.3400 -145.560 55 980 nadi main 2992 2992 O_______O___O_ jtwc_sh SH041998 -24.7000 -145.800 30 -1 -23.0000 -146.000 55 980 -23.0000 -145.000 45 987 -24.7000 -145.800 TC 30 15 111
1997302S08199 1998 104 SP MM MARTIN 1997-11-04 21:00:00 NR -23.5132 -144.856 main 3067 3067 _______IP_____ SH041998 -1 -23.4851 -145.288 47 985 -23.5414 -144.424 42 988 TC 14 121
1997302S08199 1998 104 SP MM MARTIN 1997-11-05 00:00:00 NR -24.0500 -144.250 40 990 nadi main 3151 3141 ________O_____ -1 -24.0000 -144.500 40 990 -24.1000 -144.000 40 990 15 133
1997302S08199 1998 104 SP MM MARTIN 1997-11-05 03:00:00 NR -24.5280 -143.658 main 3215 3215 _______IP_____ -1 -24.4994 -143.764 37 992 -24.5567 -143.551 37 991 15 130
1997302S08199 1998 104 SP MM MARTIN 1997-11-05 06:00:00 NR -25.0000 -143.000 35 995 nadi main 3299 3299 ________O_____ -1 -25.0000 -143.000 35 995 -25.0000 -143.000 35 992 16 130
1997302S08199 1998 104 SP MM MARTIN 1997-11-05 09:00:00 NR -25.5421 -142.323 main 3382 3382 _______IP_____ -1 -25.5012 -142.172 32 996 -25.5625 -142.398 35 993 18 123
1997302S08199 1998 104 SP MM MARTIN 1997-11-05 12:00:00 NR -26.0000 -141.300 35 995 wellington main 3494 3494 ________O_____ -1 -26.0000 -141.300 30 997 -26.0000 -141.300 35 995 29 100
1997302S08199 1998 104 SP MM MARTIN 1997-11-05 15:00:00 NR -26.0471 -139.184 main 3696 3696 ________P_____ -1 -26.0471 -139.184 32 997 39 90
1997302S08199 1998 104 SP MM MARTIN 1997-11-05 18:00:00 NR -26.0000 -137.000 30 1000 wellington main 3909 3909 ________O_____ -1 -26.0000 -137.000 30 1000 31 93
1997302S08199 1998 104 SP MM MARTIN 1997-11-05 21:00:00 NR -26.2075 -135.714 main 4040 4040 ________P_____ -1 -26.2075 -135.714 27 1001 20 104
1997302S08199 1998 104 SP MM MARTIN 1997-11-06 00:00:00 NR -26.5000 -134.800 25 1002 wellington main 4135 4135 ________O_____ -1 -26.5000 -134.800 25 1002 18 108
1997302S08199 1998 104 SP MM MARTIN 1997-11-06 03:00:00 NR -26.7417 -133.847 main 4237 4237 ________P_____ -1 -26.7417 -133.847 25 1003 17 107
1997302S08199 1998 104 SP MM MARTIN 1997-11-06 06:00:00 NR -27.0000 -133.000 25 1005 wellington main 4321 4321 ________O_____ -1 -27.0000 -133.000 25 1005 14 111
1997302S08199 1998 104 SP MM MARTIN 1997-11-06 09:00:00 NR -27.2668 -132.338 main 4396 4396 ________P_____ -1 -27.2668 -132.338 25 1005 15 114
1997302S08199 1998 104 SP MM MARTIN 1997-11-06 12:00:00 NR -27.6000 -131.500 25 1006 wellington main 4480 4480 ________O_____ -1 -27.6000 -131.500 25 1006 21 111
1997302S08199 1998 104 SP MM MARTIN 1997-11-06 15:00:00 NR -28.0226 -130.076 main 4623 4623 ________P_____ -1 -28.0226 -130.076 25 1006 28 109
1997302S08199 1998 104 SP MM MARTIN 1997-11-06 18:00:00 NR -28.5000 -128.500 25 1007 wellington main 4788 4788 ________O_____ -1 -28.5000 -128.500 25 1007 26 112
1997302S08199 1998 104 SP MM MARTIN 1997-11-06 21:00:00 NR -29.0254 -127.287 main 4833 4708 ________P_____ -1 -29.0254 -127.287 25 1008 24 115
1997302S08199 1998 104 SP MM MARTIN 1997-11-07 00:00:00 NR -29.5000 -126.000 25 1009 wellington main 4700 4558 ________O_____ -1 -29.5000 -126.000 25 1009 27 106
1997302S08199 1998 104 SP MM MARTIN 1997-11-07 03:00:00 NR -29.7729 -124.322 main 4551 4409 ________P_____ -1 -29.7729 -124.322 25 1009 31 99
1997302S08199 1998 104 SP MM MARTIN 1997-11-07 06:00:00 NR -30.0000 -122.500 25 1010 wellington main 4401 4253 ________O_____ -1 -30.0000 -122.500 25 1010 32 101
1997302S08199 1998 104 SP MM MARTIN 1997-11-07 09:00:00 NR -30.3560 -120.729 main 4238 4098 ________P_____ -1 -30.3560 -120.729 25 1010 31 103
1997302S08199 1998 104 SP MM MARTIN 1997-11-07 12:00:00 NR -30.7000 -119.000 main 4090 3964 ________O_____ -1 -30.7000 -119.000 25 1010 29 101
1997302S08199 1998 104 SP MM MARTIN 1997-11-07 15:00:00 NR -30.9194 -117.383 main 3957 3831 ________P_____ -1 -30.9194 -117.383 25 1011 28 98
1997302S08199 1998 104 SP MM MARTIN 1997-11-07 18:00:00 NR -31.1000 -115.800 main 3824 3699 ________O_____ -1 -31.1000 -115.800 25 1012 28 98
1997302S08199 1998 104 SP MM MARTIN 1997-11-07 21:00:00 NR -31.2975 -114.170 main 3691 3560 ________P_____ -1 -31.2975 -114.170 25 1012 28 98
1997302S08199 1998 104 SP MM MARTIN 1997-11-08 00:00:00 NR -31.5000 -112.500 main 3552 ________O_____ -1 -31.5000 -112.500 25 1012 29 98

Digital Typhoon Data and Search

About IBTrACS Database

This database is a web-friendly format of International Best Track Archive for Climate Stewardship (IBTrACS), a global best track data archive curated by NOAA dating back to 1842.

Updated: 2021-12-01